Terminal Aerodrome Forecast
Issued by NWS

Home | Current Version | Previous Version | Text Only | Print | Product List | Glossary Off
Versions: 1 2 3 4 5 6 7 8 9 10 11 12 13 14 15

000
FTUS43 KIWX 262339
TAFSBN
TAF
KSBN 262339Z 2700/2724 32003KT P6SM SCT025 BKN040
     FM270700 00000KT 6SM BR SKC
      TEMPO 2710/2712 2SM BR
     FM271500 32005KT P6SM SCT035=

USA.gov is the U.S. government's official web portal to all federal, state and local government web resources and services.